sensor_id;sensor_type;location;lat;lon;timestamp;P1;durP1;ratioP1;P2;durP2;ratioP2
60205;SDS011;46072;51.554;6.846;2023-10-08T00:00:48;14.18;;;4.75;;
60205;SDS011;46072;51.554;6.846;2023-10-08T00:03:20;11.98;;;4.93;;
60205;SDS011;46072;51.554;6.846;2023-10-08T00:05:47;12.32;;;5.03;;
60205;SDS011;46072;51.554;6.846;2023-10-08T00:08:13;15.75;;;4.93;;
60205;SDS011;46072;51.554;6.846;2023-10-08T00:10:43;15.10;;;6.10;;
60205;SDS011;46072;51.554;6.846;2023-10-08T00:13:11;11.85;;;5.28;;
60205;SDS011;46072;51.554;6.846;2023-10-08T00:15:39;12.05;;;5.18;;
60205;SDS011;46072;51.554;6.846;2023-10-08T00:18:22;20.00;;;5.65;;
60205;SDS011;46072;51.554;6.846;2023-10-08T00:20:49;13.00;;;5.20;;
60205;SDS011;46072;51.554;6.846;2023-10-08T00:23:31;11.45;;;5.13;;
60205;SDS011;46072;51.554;6.846;2023-10-08T00:26:01;11.05;;;4.97;;
60205;SDS011;46072;51.554;6.846;2023-10-08T00:28:30;15.48;;;5.15;;
60205;SDS011;46072;51.554;6.846;2023-10-08T00:30:58;10.10;;;4.53;;
60205;SDS011;46072;51.554;6.846;2023-10-08T00:33:31;15.02;;;5.22;;
60205;SDS011;46072;51.554;6.846;2023-10-08T00:35:58;11.18;;;5.25;;
60205;SDS011;46072;51.554;6.846;2023-10-08T00:38:25;13.77;;;5.07;;
60205;SDS011;46072;51.554;6.846;2023-10-08T00:40:58;12.70;;;5.38;;
60205;SDS011;46072;51.554;6.846;2023-10-08T00:45:57;12.95;;;5.38;;
60205;SDS011;46072;51.554;6.846;2023-10-08T00:48:25;10.80;;;4.50;;
60205;SDS011;46072;51.554;6.846;2023-10-08T00:50:56;9.43;;;4.82;;
60205;SDS011;46072;51.554;6.846;2023-10-08T00:53:35;19.13;;;5.20;;
60205;SDS011;46072;51.554;6.846;2023-10-08T00:58:40;13.48;;;4.88;;
60205;SDS011;46072;51.554;6.846;2023-10-08T01:01:07;12.13;;;5.35;;
60205;SDS011;46072;51.554;6.846;2023-10-08T01:03:37;12.05;;;5.43;;
60205;SDS011;46072;51.554;6.846;2023-10-08T01:06:11;13.50;;;5.10;;
60205;SDS011;46072;51.554;6.846;2023-10-08T01:08:37;13.40;;;4.88;;
60205;SDS011;46072;51.554;6.846;2023-10-08T01:11:21;10.05;;;5.30;;
60205;SDS011;46072;51.554;6.846;2023-10-08T01:14:08;11.73;;;5.28;;
60205;SDS011;46072;51.554;6.846;2023-10-08T01:16:34;13.85;;;4.97;;
60205;SDS011;46072;51.554;6.846;2023-10-08T01:19:00;15.10;;;6.15;;
60205;SDS011;46072;51.554;6.846;2023-10-08T01:21:30;13.95;;;5.30;;
60205;SDS011;46072;51.554;6.846;2023-10-08T01:24:01;14.77;;;5.10;;
60205;SDS011;46072;51.554;6.846;2023-10-08T01:26:28;12.27;;;4.80;;
60205;SDS011;46072;51.554;6.846;2023-10-08T01:28:58;13.88;;;5.78;;
60205;SDS011;46072;51.554;6.846;2023-10-08T01:31:29;13.40;;;5.50;;
60205;SDS011;46072;51.554;6.846;2023-10-08T01:33:55;12.63;;;5.32;;
60205;SDS011;46072;51.554;6.846;2023-10-08T01:36:24;10.80;;;5.00;;
60205;SDS011;46072;51.554;6.846;2023-10-08T01:38:51;17.33;;;5.45;;
60205;SDS011;46072;51.554;6.846;2023-10-08T01:41:18;12.32;;;5.18;;
60205;SDS011;46072;51.554;6.846;2023-10-08T01:43:45;17.00;;;5.25;;
60205;SDS011;46072;51.554;6.846;2023-10-08T01:46:12;11.68;;;4.78;;
60205;SDS011;46072;51.554;6.846;2023-10-08T01:48:38;14.65;;;5.25;;
60205;SDS011;46072;51.554;6.846;2023-10-08T01:51:05;10.00;;;4.90;;
60205;SDS011;46072;51.554;6.846;2023-10-08T01:53:37;13.02;;;5.65;;
60205;SDS011;46072;51.554;6.846;2023-10-08T01:56:05;14.43;;;5.85;;
60205;SDS011;46072;51.554;6.846;2023-10-08T01:58:31;13.82;;;6.18;;
60205;SDS011;46072;51.554;6.846;2023-10-08T02:00:59;15.10;;;5.90;;
60205;SDS011;46072;51.554;6.846;2023-10-08T02:03:26;11.45;;;5.68;;
60205;SDS011;46072;51.554;6.846;2023-10-08T02:05:56;15.48;;;5.63;;
60205;SDS011;46072;51.554;6.846;2023-10-08T02:08:26;13.73;;;6.07;;
60205;SDS011;46072;51.554;6.846;2023-10-08T02:10:52;12.60;;;4.72;;
60205;SDS011;46072;51.554;6.846;2023-10-08T02:13:19;15.23;;;6.93;;
60205;SDS011;46072;51.554;6.846;2023-10-08T02:15:54;11.90;;;6.30;;
60205;SDS011;46072;51.554;6.846;2023-10-08T02:18:21;13.10;;;5.20;;
60205;SDS011;46072;51.554;6.846;2023-10-08T02:23:18;13.70;;;5.13;;
60205;SDS011;46072;51.554;6.846;2023-10-08T02:25:45;18.65;;;5.30;;
60205;SDS011;46072;51.554;6.846;2023-10-08T02:28:11;15.48;;;5.80;;
60205;SDS011;46072;51.554;6.846;2023-10-08T02:30:39;15.93;;;5.13;;
60205;SDS011;46072;51.554;6.846;2023-10-08T02:33:05;15.40;;;5.35;;
60205;SDS011;46072;51.554;6.846;2023-10-08T02:35:42;12.82;;;5.43;;
60205;SDS011;46072;51.554;6.846;2023-10-08T02:38:10;13.23;;;5.53;;
60205;SDS011;46072;51.554;6.846;2023-10-08T02:40:37;14.90;;;6.35;;
60205;SDS011;46072;51.554;6.846;2023-10-08T02:43:03;13.82;;;5.05;;
60205;SDS011;46072;51.554;6.846;2023-10-08T02:45:34;16.77;;;7.25;;
60205;SDS011;46072;51.554;6.846;2023-10-08T02:48:05;15.02;;;5.38;;
60205;SDS011;46072;51.554;6.846;2023-10-08T02:50:41;14.88;;;5.72;;
60205;SDS011;46072;51.554;6.846;2023-10-08T02:53:07;18.27;;;6.28;;
60205;SDS011;46072;51.554;6.846;2023-10-08T02:55:40;17.35;;;5.95;;
60205;SDS011;46072;51.554;6.846;2023-10-08T02:58:13;15.23;;;5.75;;
60205;SDS011;46072;51.554;6.846;2023-10-08T03:00:44;13.20;;;5.82;;
60205;SDS011;46072;51.554;6.846;2023-10-08T03:03:16;21.40;;;6.18;;
60205;SDS011;46072;51.554;6.846;2023-10-08T03:05:45;18.48;;;5.90;;
60205;SDS011;46072;51.554;6.846;2023-10-08T03:08:13;14.27;;;5.50;;
60205;SDS011;46072;51.554;6.846;2023-10-08T03:10:40;16.83;;;5.88;;
60205;SDS011;46072;51.554;6.846;2023-10-08T03:13:08;17.45;;;5.88;;
60205;SDS011;46072;51.554;6.846;2023-10-08T03:15:36;19.17;;;5.63;;
60205;SDS011;46072;51.554;6.846;2023-10-08T03:18:05;17.00;;;5.80;;
60205;SDS011;46072;51.554;6.846;2023-10-08T03:20:41;14.85;;;5.53;;
60205;SDS011;46072;51.554;6.846;2023-10-08T03:23:12;16.38;;;6.03;;
60205;SDS011;46072;51.554;6.846;2023-10-08T03:25:50;11.95;;;5.43;;
60205;SDS011;46072;51.554;6.846;2023-10-08T03:28:20;15.50;;;5.63;;
60205;SDS011;46072;51.554;6.846;2023-10-08T03:30:51;16.90;;;5.78;;
60205;SDS011;46072;51.554;6.846;2023-10-08T03:33:18;15.00;;;5.72;;
60205;SDS011;46072;51.554;6.846;2023-10-08T03:35:50;17.98;;;6.25;;
60205;SDS011;46072;51.554;6.846;2023-10-08T03:38:22;15.88;;;5.55;;
60205;SDS011;46072;51.554;6.846;2023-10-08T03:40:55;17.35;;;5.13;;
60205;SDS011;46072;51.554;6.846;2023-10-08T03:43:27;13.52;;;5.03;;
60205;SDS011;46072;51.554;6.846;2023-10-08T03:46:13;15.18;;;5.60;;
60205;SDS011;46072;51.554;6.846;2023-10-08T03:48:42;15.00;;;5.38;;
60205;SDS011;46072;51.554;6.846;2023-10-08T03:51:11;13.75;;;5.70;;
60205;SDS011;46072;51.554;6.846;2023-10-08T03:53:38;15.10;;;5.40;;
60205;SDS011;46072;51.554;6.846;2023-10-08T03:56:24;15.50;;;5.95;;
60205;SDS011;46072;51.554;6.846;2023-10-08T03:58:51;12.15;;;5.10;;
60205;SDS011;46072;51.554;6.846;2023-10-08T04:01:21;12.88;;;5.00;;
60205;SDS011;46072;51.554;6.846;2023-10-08T04:03:48;13.57;;;6.50;;
60205;SDS011;46072;51.554;6.846;2023-10-08T04:06:20;22.80;;;6.55;;
60205;SDS011;46072;51.554;6.846;2023-10-08T04:08:55;14.48;;;5.57;;
60205;SDS011;46072;51.554;6.846;2023-10-08T04:11:37;21.02;;;6.00;;
60205;SDS011;46072;51.554;6.846;2023-10-08T04:14:22;20.50;;;5.78;;
60205;SDS011;46072;51.554;6.846;2023-10-08T04:16:50;17.65;;;5.55;;
60205;SDS011;46072;51.554;6.846;2023-10-08T04:19:18;18.85;;;5.90;;
60205;SDS011;46072;51.554;6.846;2023-10-08T04:21:44;14.73;;;5.82;;
60205;SDS011;46072;51.554;6.846;2023-10-08T04:24:11;17.13;;;5.72;;
60205;SDS011;46072;51.554;6.846;2023-10-08T04:26:40;12.43;;;5.50;;
60205;SDS011;46072;51.554;6.846;2023-10-08T04:29:07;17.88;;;6.10;;
60205;SDS011;46072;51.554;6.846;2023-10-08T04:31:34;16.73;;;5.85;;
60205;SDS011;46072;51.554;6.846;2023-10-08T04:34:05;13.17;;;5.50;;
60205;SDS011;46072;51.554;6.846;2023-10-08T04:36:48;11.88;;;5.53;;
60205;SDS011;46072;51.554;6.846;2023-10-08T04:39:21;16.20;;;5.70;;
60205;SDS011;46072;51.554;6.846;2023-10-08T04:42:07;13.02;;;5.30;;
60205;SDS011;46072;51.554;6.846;2023-10-08T04:44:37;19.77;;;6.10;;
60205;SDS011;46072;51.554;6.846;2023-10-08T04:47:10;19.48;;;5.53;;
60205;SDS011;46072;51.554;6.846;2023-10-08T04:49:53;13.85;;;5.65;;
60205;SDS011;46072;51.554;6.846;2023-10-08T04:52:20;20.25;;;6.15;;
60205;SDS011;46072;51.554;6.846;2023-10-08T04:54:51;16.15;;;5.70;;
60205;SDS011;46072;51.554;6.846;2023-10-08T04:57:18;16.00;;;6.60;;
60205;SDS011;46072;51.554;6.846;2023-10-08T04:59:48;12.77;;;5.35;;
60205;SDS011;46072;51.554;6.846;2023-10-08T05:02:16;13.40;;;5.80;;
60205;SDS011;46072;51.554;6.846;2023-10-08T05:04:47;11.52;;;5.18;;
60205;SDS011;46072;51.554;6.846;2023-10-08T05:07:32;12.98;;;5.28;;
60205;SDS011;46072;51.554;6.846;2023-10-08T05:10:11;13.20;;;5.57;;
60205;SDS011;46072;51.554;6.846;2023-10-08T05:12:58;14.98;;;5.80;;
60205;SDS011;46072;51.554;6.846;2023-10-08T05:15:30;19.33;;;5.22;;
60205;SDS011;46072;51.554;6.846;2023-10-08T05:18:03;21.27;;;6.30;;
60205;SDS011;46072;51.554;6.846;2023-10-08T05:20:50;18.35;;;6.65;;
60205;SDS011;46072;51.554;6.846;2023-10-08T05:23:17;14.35;;;5.72;;
60205;SDS011;46072;51.554;6.846;2023-10-08T05:25:51;17.33;;;6.20;;
60205;SDS011;46072;51.554;6.846;2023-10-08T05:28:33;15.55;;;6.40;;
60205;SDS011;46072;51.554;6.846;2023-10-08T05:31:14;14.07;;;6.13;;
60205;SDS011;46072;51.554;6.846;2023-10-08T05:33:41;16.58;;;7.90;;
60205;SDS011;46072;51.554;6.846;2023-10-08T05:36:30;15.02;;;6.25;;
60205;SDS011;46072;51.554;6.846;2023-10-08T05:39:16;17.98;;;5.72;;
60205;SDS011;46072;51.554;6.846;2023-10-08T05:42:07;15.45;;;6.07;;
60205;SDS011;46072;51.554;6.846;2023-10-08T05:44:41;16.27;;;6.30;;
60205;SDS011;46072;51.554;6.846;2023-10-08T05:47:15;15.65;;;5.68;;
60205;SDS011;46072;51.554;6.846;2023-10-08T05:50:00;16.02;;;6.15;;
60205;SDS011;46072;51.554;6.846;2023-10-08T05:52:46;21.75;;;6.55;;
60205;SDS011;46072;51.554;6.846;2023-10-08T05:55:24;15.43;;;5.90;;
60205;SDS011;46072;51.554;6.846;2023-10-08T05:57:54;14.30;;;6.00;;
60205;SDS011;46072;51.554;6.846;2023-10-08T06:00:50;16.80;;;5.50;;
60205;SDS011;46072;51.554;6.846;2023-10-08T06:03:17;15.25;;;6.22;;
60205;SDS011;46072;51.554;6.846;2023-10-08T06:06:07;18.70;;;6.50;;
60205;SDS011;46072;51.554;6.846;2023-10-08T06:08:54;15.75;;;5.70;;
60205;SDS011;46072;51.554;6.846;2023-10-08T06:11:47;17.17;;;5.88;;
60205;SDS011;46072;51.554;6.846;2023-10-08T06:14:34;17.13;;;6.38;;
60205;SDS011;46072;51.554;6.846;2023-10-08T06:17:33;20.50;;;7.20;;
60205;SDS011;46072;51.554;6.846;2023-10-08T06:20:34;12.88;;;5.70;;
60205;SDS011;46072;51.554;6.846;2023-10-08T06:23:00;14.13;;;7.00;;
60205;SDS011;46072;51.554;6.846;2023-10-08T06:25:33;22.05;;;6.95;;
60205;SDS011;46072;51.554;6.846;2023-10-08T06:28:14;16.60;;;6.00;;
60205;SDS011;46072;51.554;6.846;2023-10-08T06:30:41;14.07;;;6.03;;
60205;SDS011;46072;51.554;6.846;2023-10-08T06:33:12;16.58;;;6.22;;
60205;SDS011;46072;51.554;6.846;2023-10-08T06:35:40;15.43;;;6.32;;
60205;SDS011;46072;51.554;6.846;2023-10-08T06:40:37;17.23;;;6.00;;
60205;SDS011;46072;51.554;6.846;2023-10-08T06:43:04;15.27;;;6.35;;
60205;SDS011;46072;51.554;6.846;2023-10-08T06:45:47;20.00;;;6.70;;
60205;SDS011;46072;51.554;6.846;2023-10-08T06:48:21;14.10;;;5.80;;
60205;SDS011;46072;51.554;6.846;2023-10-08T06:50:48;20.38;;;5.93;;
60205;SDS011;46072;51.554;6.846;2023-10-08T06:53:17;15.80;;;5.85;;
60205;SDS011;46072;51.554;6.846;2023-10-08T06:55:44;13.82;;;6.18;;
60205;SDS011;46072;51.554;6.846;2023-10-08T06:58:11;17.80;;;6.13;;
60205;SDS011;46072;51.554;6.846;2023-10-08T07:00:38;18.55;;;6.03;;
60205;SDS011;46072;51.554;6.846;2023-10-08T07:03:15;19.58;;;7.72;;
60205;SDS011;46072;51.554;6.846;2023-10-08T07:05:45;16.80;;;6.07;;
60205;SDS011;46072;51.554;6.846;2023-10-08T07:08:21;21.05;;;8.43;;
60205;SDS011;46072;51.554;6.846;2023-10-08T07:10:49;15.55;;;6.70;;
60205;SDS011;46072;51.554;6.846;2023-10-08T07:13:16;15.95;;;6.43;;
60205;SDS011;46072;51.554;6.846;2023-10-08T07:15:52;14.40;;;5.78;;
60205;SDS011;46072;51.554;6.846;2023-10-08T07:18:18;17.35;;;6.72;;
60205;SDS011;46072;51.554;6.846;2023-10-08T07:20:57;16.92;;;6.60;;
60205;SDS011;46072;51.554;6.846;2023-10-08T07:23:27;14.40;;;6.40;;
60205;SDS011;46072;51.554;6.846;2023-10-08T07:25:57;19.40;;;6.70;;
60205;SDS011;46072;51.554;6.846;2023-10-08T07:28:27;19.42;;;7.93;;
60205;SDS011;46072;51.554;6.846;2023-10-08T07:30:56;19.83;;;6.47;;
60205;SDS011;46072;51.554;6.846;2023-10-08T07:33:24;17.95;;;7.38;;
60205;SDS011;46072;51.554;6.846;2023-10-08T07:35:51;14.80;;;6.78;;
60205;SDS011;46072;51.554;6.846;2023-10-08T07:38:26;16.98;;;7.15;;
60205;SDS011;46072;51.554;6.846;2023-10-08T07:40:56;18.83;;;8.00;;
60205;SDS011;46072;51.554;6.846;2023-10-08T07:43:23;17.40;;;7.22;;
60205;SDS011;46072;51.554;6.846;2023-10-08T07:45:49;17.23;;;6.78;;
60205;SDS011;46072;51.554;6.846;2023-10-08T07:48:15;21.45;;;8.20;;
60205;SDS011;46072;51.554;6.846;2023-10-08T07:50:43;16.38;;;7.85;;
60205;SDS011;46072;51.554;6.846;2023-10-08T07:53:09;18.63;;;7.55;;
60205;SDS011;46072;51.554;6.846;2023-10-08T07:55:44;18.23;;;6.90;;
60205;SDS011;46072;51.554;6.846;2023-10-08T07:58:12;11.50;;;6.28;;
60205;SDS011;46072;51.554;6.846;2023-10-08T08:00:40;19.13;;;9.52;;
60205;SDS011;46072;51.554;6.846;2023-10-08T08:03:07;22.23;;;12.02;;
60205;SDS011;46072;51.554;6.846;2023-10-08T08:05:34;24.48;;;11.70;;
60205;SDS011;46072;51.554;6.846;2023-10-08T08:08:00;27.98;;;11.20;;
60205;SDS011;46072;51.554;6.846;2023-10-08T08:10:32;25.90;;;9.75;;
60205;SDS011;46072;51.554;6.846;2023-10-08T08:13:04;23.63;;;11.60;;
60205;SDS011;46072;51.554;6.846;2023-10-08T08:15:34;20.33;;;8.33;;
60205;SDS011;46072;51.554;6.846;2023-10-08T08:18:07;15.43;;;7.40;;
60205;SDS011;46072;51.554;6.846;2023-10-08T08:20:36;14.63;;;6.07;;
60205;SDS011;46072;51.554;6.846;2023-10-08T08:23:09;13.85;;;5.50;;
60205;SDS011;46072;51.554;6.846;2023-10-08T08:25:39;12.80;;;5.38;;
60205;SDS011;46072;51.554;6.846;2023-10-08T08:28:12;12.95;;;5.15;;
60205;SDS011;46072;51.554;6.846;2023-10-08T08:30:47;11.75;;;5.03;;
60205;SDS011;46072;51.554;6.846;2023-10-08T08:33:14;12.20;;;4.90;;
60205;SDS011;46072;51.554;6.846;2023-10-08T08:35:58;16.50;;;5.05;;
60205;SDS011;46072;51.554;6.846;2023-10-08T08:38:26;14.15;;;5.32;;
60205;SDS011;46072;51.554;6.846;2023-10-08T08:41:01;17.67;;;6.75;;
60205;SDS011;46072;51.554;6.846;2023-10-08T08:43:35;17.15;;;7.13;;
60205;SDS011;46072;51.554;6.846;2023-10-08T08:46:02;17.38;;;7.60;;
60205;SDS011;46072;51.554;6.846;2023-10-08T08:48:31;19.05;;;8.90;;
60205;SDS011;46072;51.554;6.846;2023-10-08T08:50:58;18.75;;;9.82;;
60205;SDS011;46072;51.554;6.846;2023-10-08T08:53:25;20.95;;;10.50;;
60205;SDS011;46072;51.554;6.846;2023-10-08T08:55:54;20.48;;;8.85;;
60205;SDS011;46072;51.554;6.846;2023-10-08T08:58:24;14.55;;;6.57;;
60205;SDS011;46072;51.554;6.846;2023-10-08T09:00:55;12.15;;;5.10;;
60205;SDS011;46072;51.554;6.846;2023-10-08T09:03:22;9.13;;;4.47;;
60205;SDS011;46072;51.554;6.846;2023-10-08T09:05:57;11.13;;;4.45;;
60205;SDS011;46072;51.554;6.846;2023-10-08T09:08:27;8.90;;;4.25;;
60205;SDS011;46072;51.554;6.846;2023-10-08T09:10:57;8.50;;;3.50;;
60205;SDS011;46072;51.554;6.846;2023-10-08T09:13:27;7.38;;;3.38;;
60205;SDS011;46072;51.554;6.846;2023-10-08T09:16:01;6.20;;;2.78;;
60205;SDS011;46072;51.554;6.846;2023-10-08T09:18:30;9.93;;;3.35;;
60205;SDS011;46072;51.554;6.846;2023-10-08T09:21:11;10.75;;;4.95;;
60205;SDS011;46072;51.554;6.846;2023-10-08T09:23:39;12.63;;;5.70;;
60205;SDS011;46072;51.554;6.846;2023-10-08T09:26:05;13.40;;;6.70;;
60205;SDS011;46072;51.554;6.846;2023-10-08T09:28:34;19.60;;;6.55;;
60205;SDS011;46072;51.554;6.846;2023-10-08T09:31:03;17.25;;;7.47;;
60205;SDS011;46072;51.554;6.846;2023-10-08T09:33:31;16.15;;;6.78;;
60205;SDS011;46072;51.554;6.846;2023-10-08T09:36:01;12.68;;;5.13;;
60205;SDS011;46072;51.554;6.846;2023-10-08T09:40:56;16.80;;;4.55;;
60205;SDS011;46072;51.554;6.846;2023-10-08T09:43:23;17.20;;;8.15;;
60205;SDS011;46072;51.554;6.846;2023-10-08T09:45:55;20.00;;;8.43;;
60205;SDS011;46072;51.554;6.846;2023-10-08T09:48:22;11.35;;;5.13;;
60205;SDS011;46072;51.554;6.846;2023-10-08T09:50:52;10.40;;;3.92;;
60205;SDS011;46072;51.554;6.846;2023-10-08T09:53:24;8.43;;;3.30;;
60205;SDS011;46072;51.554;6.846;2023-10-08T09:55:53;13.05;;;7.00;;
60205;SDS011;46072;51.554;6.846;2023-10-08T09:58:23;16.95;;;8.23;;
60205;SDS011;46072;51.554;6.846;2023-10-08T10:00:51;13.00;;;6.13;;
60205;SDS011;46072;51.554;6.846;2023-10-08T10:03:21;6.95;;;2.60;;
60205;SDS011;46072;51.554;6.846;2023-10-08T10:05:48;4.80;;;2.20;;
60205;SDS011;46072;51.554;6.846;2023-10-08T10:08:19;3.95;;;2.20;;
60205;SDS011;46072;51.554;6.846;2023-10-08T10:10:57;4.30;;;1.85;;
60205;SDS011;46072;51.554;6.846;2023-10-08T10:13:27;6.40;;;2.42;;
60205;SDS011;46072;51.554;6.846;2023-10-08T10:15:54;8.73;;;2.50;;
60205;SDS011;46072;51.554;6.846;2023-10-08T10:20:52;6.20;;;2.63;;
60205;SDS011;46072;51.554;6.846;2023-10-08T10:23:36;9.95;;;3.40;;
60205;SDS011;46072;51.554;6.846;2023-10-08T10:26:03;6.57;;;2.85;;
60205;SDS011;46072;51.554;6.846;2023-10-08T10:28:30;8.65;;;3.25;;
60205;SDS011;46072;51.554;6.846;2023-10-08T10:30:56;14.48;;;3.75;;
60205;SDS011;46072;51.554;6.846;2023-10-08T10:33:32;11.85;;;3.47;;
60205;SDS011;46072;51.554;6.846;2023-10-08T10:36:03;11.55;;;4.13;;
60205;SDS011;46072;51.554;6.846;2023-10-08T10:38:31;11.90;;;3.67;;
60205;SDS011;46072;51.554;6.846;2023-10-08T10:41:03;9.18;;;3.53;;
60205;SDS011;46072;51.554;6.846;2023-10-08T10:43:34;12.55;;;4.78;;
60205;SDS011;46072;51.554;6.846;2023-10-08T10:46:00;9.35;;;3.88;;
60205;SDS011;46072;51.554;6.846;2023-10-08T10:48:49;11.48;;;4.30;;
60205;SDS011;46072;51.554;6.846;2023-10-08T10:51:31;14.40;;;5.35;;
60205;SDS011;46072;51.554;6.846;2023-10-08T10:54:00;14.20;;;5.40;;
60205;SDS011;46072;51.554;6.846;2023-10-08T10:56:34;13.65;;;4.63;;
60205;SDS011;46072;51.554;6.846;2023-10-08T10:59:08;14.15;;;5.57;;
60205;SDS011;46072;51.554;6.846;2023-10-08T11:01:54;17.30;;;4.60;;
60205;SDS011;46072;51.554;6.846;2023-10-08T11:04:47;10.35;;;4.85;;
60205;SDS011;46072;51.554;6.846;2023-10-08T11:07:18;14.88;;;5.25;;
60205;SDS011;46072;51.554;6.846;2023-10-08T11:09:49;12.93;;;5.90;;
60205;SDS011;46072;51.554;6.846;2023-10-08T11:12:18;14.57;;;5.22;;
60205;SDS011;46072;51.554;6.846;2023-10-08T11:14:58;14.52;;;5.68;;
60205;SDS011;46072;51.554;6.846;2023-10-08T11:17:25;11.90;;;5.53;;
60205;SDS011;46072;51.554;6.846;2023-10-08T11:22:22;15.23;;;5.88;;
60205;SDS011;46072;51.554;6.846;2023-10-08T11:24:49;13.40;;;5.75;;
60205;SDS011;46072;51.554;6.846;2023-10-08T11:27:20;12.82;;;6.03;;
60205;SDS011;46072;51.554;6.846;2023-10-08T11:29:56;11.68;;;5.25;;
60205;SDS011;46072;51.554;6.846;2023-10-08T11:32:24;12.45;;;5.28;;
60205;SDS011;46072;51.554;6.846;2023-10-08T11:34:56;14.02;;;4.95;;
60205;SDS011;46072;51.554;6.846;2023-10-08T11:37:26;11.18;;;4.53;;
60205;SDS011;46072;51.554;6.846;2023-10-08T11:39:53;8.45;;;3.45;;
60205;SDS011;46072;51.554;6.846;2023-10-08T11:42:24;10.07;;;3.40;;
60205;SDS011;46072;51.554;6.846;2023-10-08T11:45:00;5.72;;;2.58;;
60205;SDS011;46072;51.554;6.846;2023-10-08T11:47:44;5.85;;;2.80;;
60205;SDS011;46072;51.554;6.846;2023-10-08T11:50:11;11.32;;;4.43;;
60205;SDS011;46072;51.554;6.846;2023-10-08T11:52:43;6.90;;;2.88;;
60205;SDS011;46072;51.554;6.846;2023-10-08T11:55:09;7.65;;;3.17;;
60205;SDS011;46072;51.554;6.846;2023-10-08T11:57:39;5.68;;;3.22;;
60205;SDS011;46072;51.554;6.846;2023-10-08T12:00:12;9.20;;;3.70;;
60205;SDS011;46072;51.554;6.846;2023-10-08T12:02:58;5.63;;;3.20;;
60205;SDS011;46072;51.554;6.846;2023-10-08T12:05:28;7.63;;;3.42;;
60205;SDS011;46072;51.554;6.846;2023-10-08T12:07:55;8.45;;;3.15;;
60205;SDS011;46072;51.554;6.846;2023-10-08T12:10:24;7.15;;;3.30;;
60205;SDS011;46072;51.554;6.846;2023-10-08T12:12:51;6.93;;;2.92;;
60205;SDS011;46072;51.554;6.846;2023-10-08T12:15:21;5.45;;;3.10;;
60205;SDS011;46072;51.554;6.846;2023-10-08T12:17:48;4.90;;;2.60;;
60205;SDS011;46072;51.554;6.846;2023-10-08T12:20:36;6.00;;;3.20;;
60205;SDS011;46072;51.554;6.846;2023-10-08T12:23:06;3.53;;;2.25;;
60205;SDS011;46072;51.554;6.846;2023-10-08T12:25:37;6.93;;;2.55;;
60205;SDS011;46072;51.554;6.846;2023-10-08T12:28:03;3.38;;;2.17;;
60205;SDS011;46072;51.554;6.846;2023-10-08T12:30:31;7.10;;;2.17;;
60205;SDS011;46072;51.554;6.846;2023-10-08T12:32:58;7.00;;;2.15;;
60205;SDS011;46072;51.554;6.846;2023-10-08T12:35:25;5.60;;;2.10;;
60205;SDS011;46072;51.554;6.846;2023-10-08T12:37:53;3.30;;;1.77;;
60205;SDS011;46072;51.554;6.846;2023-10-08T12:40:20;7.50;;;1.77;;
60205;SDS011;46072;51.554;6.846;2023-10-08T12:42:53;7.88;;;1.42;;
60205;SDS011;46072;51.554;6.846;2023-10-08T12:45:20;4.15;;;1.27;;
60205;SDS011;46072;51.554;6.846;2023-10-08T12:47:50;1.33;;;1.20;;
60205;SDS011;46072;51.554;6.846;2023-10-08T12:50:17;7.53;;;1.85;;
60205;SDS011;46072;51.554;6.846;2023-10-08T12:52:43;5.25;;;1.60;;
60205;SDS011;46072;51.554;6.846;2023-10-08T12:55:22;3.95;;;1.15;;
60205;SDS011;46072;51.554;6.846;2023-10-08T12:57:51;6.40;;;1.27;;
60205;SDS011;46072;51.554;6.846;2023-10-08T13:00:22;8.13;;;1.70;;
60205;SDS011;46072;51.554;6.846;2023-10-08T13:02:50;6.32;;;1.27;;
60205;SDS011;46072;51.554;6.846;2023-10-08T13:05:21;7.60;;;1.45;;
60205;SDS011;46072;51.554;6.846;2023-10-08T13:07:54;3.47;;;1.60;;
60205;SDS011;46072;51.554;6.846;2023-10-08T13:10:21;4.80;;;1.40;;
60205;SDS011;46072;51.554;6.846;2023-10-08T13:12:48;3.65;;;1.50;;
60205;SDS011;46072;51.554;6.846;2023-10-08T13:15:15;4.88;;;1.60;;
60205;SDS011;46072;51.554;6.846;2023-10-08T13:17:41;8.60;;;2.00;;
60205;SDS011;46072;51.554;6.846;2023-10-08T13:20:12;6.95;;;2.15;;
60205;SDS011;46072;51.554;6.846;2023-10-08T13:22:39;5.20;;;1.52;;
60205;SDS011;46072;51.554;6.846;2023-10-08T13:25:06;6.22;;;1.98;;
60205;SDS011;46072;51.554;6.846;2023-10-08T13:27:32;6.57;;;1.92;;
60205;SDS011;46072;51.554;6.846;2023-10-08T13:29:59;6.07;;;1.67;;
60205;SDS011;46072;51.554;6.846;2023-10-08T13:32:31;6.32;;;2.25;;
60205;SDS011;46072;51.554;6.846;2023-10-08T13:34:57;4.53;;;1.60;;
60205;SDS011;46072;51.554;6.846;2023-10-08T13:37:25;6.25;;;1.70;;
60205;SDS011;46072;51.554;6.846;2023-10-08T13:39:51;4.25;;;1.55;;
60205;SDS011;46072;51.554;6.846;2023-10-08T13:42:19;4.75;;;1.60;;
60205;SDS011;46072;51.554;6.846;2023-10-08T13:44:47;5.18;;;1.50;;
60205;SDS011;46072;51.554;6.846;2023-10-08T13:47:14;2.45;;;1.60;;
60205;SDS011;46072;51.554;6.846;2023-10-08T13:49:41;6.22;;;1.80;;
60205;SDS011;46072;51.554;6.846;2023-10-08T13:52:10;5.13;;;1.90;;
60205;SDS011;46072;51.554;6.846;2023-10-08T13:54:37;6.78;;;2.10;;
60205;SDS011;46072;51.554;6.846;2023-10-08T13:57:08;11.73;;;3.28;;
60205;SDS011;46072;51.554;6.846;2023-10-08T13:59:35;4.72;;;2.10;;
60205;SDS011;46072;51.554;6.846;2023-10-08T14:02:04;7.53;;;2.78;;
60205;SDS011;46072;51.554;6.846;2023-10-08T14:04:41;8.85;;;2.85;;
60205;SDS011;46072;51.554;6.846;2023-10-08T14:07:10;5.65;;;2.30;;
60205;SDS011;46072;51.554;6.846;2023-10-08T14:09:38;6.22;;;2.08;;
60205;SDS011;46072;51.554;6.846;2023-10-08T14:12:04;5.88;;;1.90;;
60205;SDS011;46072;51.554;6.846;2023-10-08T14:14:34;5.40;;;1.73;;
60205;SDS011;46072;51.554;6.846;2023-10-08T14:17:02;7.85;;;2.00;;
60205;SDS011;46072;51.554;6.846;2023-10-08T14:19:37;5.47;;;1.90;;
60205;SDS011;46072;51.554;6.846;2023-10-08T14:22:26;8.35;;;2.63;;
60205;SDS011;46072;51.554;6.846;2023-10-08T14:24:53;6.53;;;1.80;;
60205;SDS011;46072;51.554;6.846;2023-10-08T14:27:26;5.55;;;1.90;;
60205;SDS011;46072;51.554;6.846;2023-10-08T14:29:58;6.88;;;2.03;;
60205;SDS011;46072;51.554;6.846;2023-10-08T14:32:30;6.55;;;1.83;;
60205;SDS011;46072;51.554;6.846;2023-10-08T14:35:00;4.82;;;1.80;;
60205;SDS011;46072;51.554;6.846;2023-10-08T14:37:45;5.80;;;1.95;;
60205;SDS011;46072;51.554;6.846;2023-10-08T14:40:30;7.60;;;1.90;;
60205;SDS011;46072;51.554;6.846;2023-10-08T14:43:16;5.68;;;2.00;;
60205;SDS011;46072;51.554;6.846;2023-10-08T14:45:46;3.95;;;1.73;;
60205;SDS011;46072;51.554;6.846;2023-10-08T14:48:13;5.55;;;1.92;;
60205;SDS011;46072;51.554;6.846;2023-10-08T14:50:40;5.20;;;2.00;;
60205;SDS011;46072;51.554;6.846;2023-10-08T14:53:09;3.67;;;1.70;;
60205;SDS011;46072;51.554;6.846;2023-10-08T14:55:36;3.38;;;1.63;;
60205;SDS011;46072;51.554;6.846;2023-10-08T14:58:06;8.55;;;2.20;;
60205;SDS011;46072;51.554;6.846;2023-10-08T15:00:35;8.30;;;3.05;;
60205;SDS011;46072;51.554;6.846;2023-10-08T15:03:05;5.95;;;2.00;;
60205;SDS011;46072;51.554;6.846;2023-10-08T15:05:32;3.90;;;1.80;;
60205;SDS011;46072;51.554;6.846;2023-10-08T15:07:59;6.20;;;1.98;;
60205;SDS011;46072;51.554;6.846;2023-10-08T15:10:26;6.38;;;1.83;;
60205;SDS011;46072;51.554;6.846;2023-10-08T15:12:53;5.00;;;2.00;;
60205;SDS011;46072;51.554;6.846;2023-10-08T15:15:20;3.78;;;1.65;;
60205;SDS011;46072;51.554;6.846;2023-10-08T15:17:49;5.18;;;1.95;;
60205;SDS011;46072;51.554;6.846;2023-10-08T15:20:16;5.53;;;2.10;;